Time;durP1;ratioP1;P1;durP2;ratioP2;P2;SDS_P1;SDS_P2;PMS_P1;PMS_P2;Temp;Humidity;BMP_temperature;BMP_pressure;BME280_temperature;BME280_humidity;BME280_pressure;Samples;Min_cycle;Max_cycle;Signal;HPM_P1;HPM_P2
2023/04/08 00:01:40;;;;;;;22.07;12.47;;;;;;;;;;5026764;28;20192;-64
2023/04/08 00:04:08;;;;;;;20.77;12.13;;;;;;;;;;5027358;28;20195;-65
2023/04/08 00:06:36;;;;;;;20.90;12.37;;;;;;;;;;5009967;28;20270;-65
2023/04/08 00:09:02;;;;;;;22.43;11.43;;;;;;;;;;5026388;28;20203;-65
2023/04/08 00:11:29;;;;;;;18.60;10.77;;;;;;;;;;5026447;28;20201;-65
2023/04/08 00:13:56;;;;;;;19.13;11.27;;;;;;;;;;5009415;28;20666;-65
2023/04/08 00:16:22;;;;;;;22.17;11.63;;;;;;;;;;5026733;28;20593;-64
2023/04/08 00:18:49;;;;;;;22.03;11.87;;;;;;;;;;5026642;28;20195;-65
2023/04/08 00:21:19;;;;;;;24.03;12.17;;;;;;;;;;5026972;28;20192;-65
2023/04/08 00:23:46;;;;;;;21.80;12.03;;;;;;;;;;5026509;28;20234;-65
2023/04/08 00:26:13;;;;;;;24.03;13.60;;;;;;;;;;5028301;28;20195;-65
2023/04/08 00:28:41;;;;;;;27.17;14.50;;;;;;;;;;5026647;28;20207;-64
2023/04/08 00:31:08;;;;;;;25.73;14.53;;;;;;;;;;5027498;28;20573;-65
2023/04/08 00:33:35;;;;;;;27.43;15.97;;;;;;;;;;5027791;28;20651;-65
2023/04/08 00:36:02;;;;;;;26.67;15.57;;;;;;;;;;5025849;28;20206;-65
2023/04/08 00:38:29;;;;;;;26.50;14.73;;;;;;;;;;5010587;28;20230;-65
2023/04/08 00:40:57;;;;;;;23.57;13.97;;;;;;;;;;5009660;28;20289;-64
2023/04/08 00:43:24;;;;;;;24.27;13.80;;;;;;;;;;5026783;28;20225;-65
2023/04/08 00:45:51;;;;;;;22.03;13.70;;;;;;;;;;5010108;28;20202;-64
2023/04/08 00:48:18;;;;;;;22.93;12.97;;;;;;;;;;5010277;28;20215;-64
2023/04/08 00:50:46;;;;;;;22.10;12.90;;;;;;;;;;5030100;28;20188;-65
2023/04/08 00:53:16;;;;;;;24.57;13.40;;;;;;;;;;5013230;28;20278;-65
2023/04/08 00:55:43;;;;;;;24.97;13.07;;;;;;;;;;4999880;28;20226;-65
2023/04/08 00:58:10;;;;;;;24.23;13.57;;;;;;;;;;5011212;28;20192;-65
2023/04/08 01:00:37;;;;;;;19.90;12.47;;;;;;;;;;5025606;28;20223;-65
2023/04/08 01:03:11;;;;;;;19.07;12.37;;;;;;;;;;5026682;28;20187;-65
2023/04/08 01:05:40;;;;;;;26.27;13.63;;;;;;;;;;5027071;28;20226;-65
2023/04/08 01:08:07;;;;;;;25.47;15.03;;;;;;;;;;5026655;28;20204;-65
2023/04/08 01:10:34;;;;;;;27.87;14.80;;;;;;;;;;5031637;28;20730;-65
2023/04/08 01:13:03;;;;;;;26.93;14.47;;;;;;;;;;5009262;28;20309;-64
2023/04/08 01:15:30;;;;;;;30.07;15.47;;;;;;;;;;5008121;28;20203;-65
2023/04/08 01:17:57;;;;;;;26.13;14.30;;;;;;;;;;4999665;28;20610;-65
2023/04/08 01:20:24;;;;;;;23.93;13.77;;;;;;;;;;5023043;28;20245;-64
2023/04/08 01:23:00;;;;;;;25.73;14.43;;;;;;;;;;5030048;28;20890;-64
2023/04/08 01:25:31;;;;;;;24.43;14.50;;;;;;;;;;5031479;28;20205;-64
2023/04/08 01:28:05;;;;;;;21.23;12.50;;;;;;;;;;5030022;28;20196;-64
2023/04/08 01:30:31;;;;;;;21.43;12.90;;;;;;;;;;5016326;28;21051;-65
2023/04/08 01:32:58;;;;;;;24.63;13.70;;;;;;;;;;5014103;28;20200;-64
2023/04/08 01:35:25;;;;;;;25.73;13.63;;;;;;;;;;5012564;28;20249;-64
2023/04/08 01:37:51;;;;;;;22.53;13.43;;;;;;;;;;5029601;28;20245;-65
2023/04/08 01:40:21;;;;;;;25.43;13.40;;;;;;;;;;5011819;28;20262;-64
2023/04/08 02:15:13;;;;;;;24.23;12.57;;;;;;;;;;5032452;28;20924;-64
2023/04/08 02:17:40;;;;;;;21.63;12.00;;;;;;;;;;5029813;28;20219;-64
2023/04/08 02:20:09;;;;;;;24.17;13.33;;;;;;;;;;5028936;28;20215;-66
2023/04/08 02:22:37;;;;;;;21.93;12.07;;;;;;;;;;5027527;28;20195;-64
2023/04/08 02:25:06;;;;;;;17.67;10.10;;;;;;;;;;4995470;28;20218;-64
2023/04/08 02:27:33;;;;;;;16.97;10.83;;;;;;;;;;5029554;28;20262;-64
2023/04/08 02:29:59;;;;;;;20.47;11.90;;;;;;;;;;5012034;28;20614;-64
2023/04/08 02:32:26;;;;;;;17.13;10.77;;;;;;;;;;5028969;28;20298;-65
2023/04/08 02:34:53;;;;;;;17.50;11.20;;;;;;;;;;4995544;28;20243;-65
2023/04/08 02:37:21;;;;;;;20.30;12.47;;;;;;;;;;4995412;28;20200;-64
2023/04/08 02:39:48;;;;;;;17.00;11.17;;;;;;;;;;5028782;28;20251;-64
2023/04/08 02:42:15;;;;;;;15.37;10.57;;;;;;;;;;5016268;28;20232;-64
2023/04/08 02:44:41;;;;;;;20.70;11.33;;;;;;;;;;5009592;28;20184;-64
2023/04/08 02:47:09;;;;;;;20.93;11.40;;;;;;;;;;5009260;28;20196;-64
2023/04/08 02:49:36;;;;;;;32.00;14.33;;;;;;;;;;5009210;28;20180;-64
2023/04/08 02:52:03;;;;;;;29.17;13.30;;;;;;;;;;5009163;28;20207;-64
2023/04/08 02:54:30;;;;;;;46.63;14.47;;;;;;;;;;5009224;28;20250;-64
2023/04/08 02:56:56;;;;;;;20.00;12.67;;;;;;;;;;5026373;28;20563;-65
2023/04/08 02:59:23;;;;;;;21.27;12.00;;;;;;;;;;5029063;28;20270;-64
2023/04/08 03:01:49;;;;;;;30.80;12.43;;;;;;;;;;5028860;28;20195;-64
2023/04/08 03:04:16;;;;;;;21.27;12.10;;;;;;;;;;5028859;28;20192;-64
2023/04/08 03:06:43;;;;;;;26.73;11.93;;;;;;;;;;5027739;28;20277;-64
2023/04/08 03:09:10;;;;;;;19.83;12.23;;;;;;;;;;5011089;28;20195;-64
2023/04/08 03:11:36;;;;;;;17.87;12.03;;;;;;;;;;5029118;28;20274;-64
2023/04/08 03:14:03;;;;;;;18.67;12.90;;;;;;;;;;5028619;28;20215;-64
2023/04/08 03:16:31;;;;;;;19.57;12.63;;;;;;;;;;5013140;28;20194;-64
2023/04/08 03:18:58;;;;;;;19.77;13.40;;;;;;;;;;5027772;28;20269;-64
2023/04/08 03:21:26;;;;;;;30.03;15.17;;;;;;;;;;5028472;28;20227;-64
2023/04/08 03:23:52;;;;;;;23.77;14.53;;;;;;;;;;5028246;28;20968;-65
2023/04/08 03:26:20;;;;;;;44.40;18.33;;;;;;;;;;5028216;28;20601;-65
2023/04/08 03:28:46;;;;;;;57.40;20.77;;;;;;;;;;5010566;28;20195;-64
2023/04/08 03:31:14;;;;;;;39.67;18.90;;;;;;;;;;5027541;28;20278;-64
2023/04/08 03:33:41;;;;;;;39.00;18.67;;;;;;;;;;5027879;28;20543;-64
2023/04/08 03:36:07;;;;;;;46.40;21.77;;;;;;;;;;5027338;28;20192;-64
2023/04/08 03:38:34;;;;;;;79.97;26.50;;;;;;;;;;5027412;28;20187;-65
2023/04/08 03:41:01;;;;;;;84.97;28.03;;;;;;;;;;5027909;28;20239;-64
2023/04/08 03:43:27;;;;;;;57.73;22.13;;;;;;;;;;5028236;28;20184;-64
2023/04/08 03:45:55;;;;;;;41.87;18.87;;;;;;;;;;5027253;28;20195;-65
2023/04/08 03:48:21;;;;;;;43.17;20.83;;;;;;;;;;5019771;28;20282;-64
2023/04/08 03:50:48;;;;;;;37.37;19.53;;;;;;;;;;5019175;28;20662;-65
2023/04/08 03:53:16;;;;;;;39.67;19.70;;;;;;;;;;5028006;28;20255;-64
2023/04/08 03:55:43;;;;;;;35.90;18.27;;;;;;;;;;5027252;28;20210;-64
2023/04/08 03:58:09;;;;;;;36.27;19.40;;;;;;;;;;5027994;28;20183;-64
2023/04/08 04:00:37;;;;;;;33.70;18.03;;;;;;;;;;5027674;28;20298;-64
2023/04/08 04:03:04;;;;;;;40.17;19.53;;;;;;;;;;5027217;28;20678;-64
2023/04/08 04:05:30;;;;;;;32.03;17.97;;;;;;;;;;5027356;28;20206;-64
2023/04/08 04:07:57;;;;;;;35.60;19.37;;;;;;;;;;5027905;28;20261;-64
2023/04/08 04:10:24;;;;;;;33.73;18.07;;;;;;;;;;5027810;28;20191;-64
2023/04/08 04:12:50;;;;;;;29.47;18.37;;;;;;;;;;5026983;28;20221;-64
2023/04/08 04:15:17;;;;;;;28.23;17.47;;;;;;;;;;5027873;28;21033;-64
2023/04/08 04:17:46;;;;;;;35.20;18.97;;;;;;;;;;5026862;28;20194;-65
2023/04/08 04:20:12;;;;;;;31.63;17.23;;;;;;;;;;5010407;28;20239;-64
2023/04/08 04:22:39;;;;;;;29.73;16.57;;;;;;;;;;5027050;28;21054;-64
2023/04/08 04:25:06;;;;;;;119.40;22.13;;;;;;;;;;5028274;28;20829;-64
2023/04/08 04:27:32;;;;;;;30.83;16.83;;;;;;;;;;5027779;28;20259;-64
2023/04/08 04:30:00;;;;;;;31.07;15.87;;;;;;;;;;5029172;28;20180;-65
2023/04/08 04:32:27;;;;;;;27.87;16.13;;;;;;;;;;5010193;28;21057;-64
2023/04/08 04:34:54;;;;;;;49.73;17.90;;;;;;;;;;5027052;28;20184;-64
2023/04/08 04:37:21;;;;;;;31.50;15.90;;;;;;;;;;5027294;28;20605;-64
2023/04/08 04:39:47;;;;;;;24.17;14.17;;;;;;;;;;5018898;28;20257;-64
2023/04/08 04:42:14;;;;;;;22.57;14.23;;;;;;;;;;5027654;28;20274;-65
2023/04/08 04:44:42;;;;;;;26.43;15.03;;;;;;;;;;5028054;28;20271;-64
2023/04/08 04:47:08;;;;;;;29.27;16.00;;;;;;;;;;5030403;28;20199;-64
2023/04/08 04:49:35;;;;;;;26.03;16.17;;;;;;;;;;5027692;28;20254;-64
2023/04/08 04:52:06;;;;;;;27.73;15.13;;;;;;;;;;5027256;28;20189;-65
2023/04/08 04:54:37;;;;;;;25.20;16.40;;;;;;;;;;5030542;28;20198;-64
2023/04/08 04:57:04;;;;;;;24.33;14.73;;;;;;;;;;5020657;28;20667;-64
2023/04/08 04:59:31;;;;;;;24.47;15.63;;;;;;;;;;5023936;28;20195;-64
2023/04/08 05:01:58;;;;;;;26.03;15.20;;;;;;;;;;5029736;28;20690;-64
2023/04/08 05:04:25;;;;;;;29.40;15.90;;;;;;;;;;5029702;28;20192;-64
2023/04/08 05:06:51;;;;;;;29.23;17.07;;;;;;;;;;5029876;28;20314;-63
2023/04/08 05:09:18;;;;;;;25.60;16.13;;;;;;;;;;5030344;28;20265;-63
2023/04/08 05:11:44;;;;;;;29.77;17.13;;;;;;;;;;5030162;28;20199;-64
2023/04/08 05:14:11;;;;;;;27.47;16.23;;;;;;;;;;5004991;28;20963;-64
2023/04/08 05:16:38;;;;;;;30.67;17.70;;;;;;;;;;5023771;28;20192;-65
2023/04/08 05:19:04;;;;;;;50.83;23.80;;;;;;;;;;5029157;28;20199;-66
2023/04/08 05:21:31;;;;;;;32.97;19.73;;;;;;;;;;5029051;28;20910;-65
2023/04/08 05:23:58;;;;;;;35.20;20.30;;;;;;;;;;5030343;28;20187;-66
2023/04/08 05:26:25;;;;;;;33.40;18.30;;;;;;;;;;5030094;28;20641;-65
2023/04/08 05:28:51;;;;;;;35.13;18.20;;;;;;;;;;5029330;28;20189;-66
2023/04/08 05:31:18;;;;;;;28.80;17.73;;;;;;;;;;5028548;28;20188;-66
2023/04/08 05:33:45;;;;;;;30.37;18.37;;;;;;;;;;5030405;28;20192;-65
2023/04/08 05:36:12;;;;;;;30.57;18.30;;;;;;;;;;5030501;28;20245;-64
2023/04/08 05:38:39;;;;;;;29.17;17.70;;;;;;;;;;5030515;28;20187;-65
2023/04/08 05:41:06;;;;;;;29.83;16.80;;;;;;;;;;5030051;28;20215;-64
2023/04/08 05:43:33;;;;;;;28.67;18.07;;;;;;;;;;5029654;28;20245;-64
2023/04/08 05:45:59;;;;;;;31.60;19.37;;;;;;;;;;5030457;28;20188;-64
2023/04/08 05:48:26;;;;;;;30.40;19.20;;;;;;;;;;5014682;28;20191;-65
2023/04/08 05:50:53;;;;;;;29.37;19.23;;;;;;;;;;5030390;28;20246;-64
2023/04/08 05:53:19;;;;;;;28.03;19.23;;;;;;;;;;5029047;28;20219;-65
2023/04/08 05:55:47;;;;;;;31.17;20.33;;;;;;;;;;5029207;28;20730;-65
2023/04/08 05:58:14;;;;;;;31.07;19.80;;;;;;;;;;5005174;28;20915;-65
2023/04/08 06:00:41;;;;;;;31.90;18.27;;;;;;;;;;5022231;28;20265;-66
2023/04/08 06:03:09;;;;;;;27.10;18.73;;;;;;;;;;5031054;28;20195;-65
2023/04/08 06:05:36;;;;;;;34.33;19.60;;;;;;;;;;5028790;28;20214;-65
2023/04/08 06:08:03;;;;;;;37.97;23.20;;;;;;;;;;5028166;28;20198;-65
2023/04/08 06:10:30;;;;;;;35.00;21.57;;;;;;;;;;5028476;28;20190;-66
2023/04/08 06:12:57;;;;;;;41.53;23.70;;;;;;;;;;5010536;28;20666;-65
2023/04/08 06:15:24;;;;;;;36.10;23.87;;;;;;;;;;5009982;28;20203;-65
2023/04/08 06:17:51;;;;;;;38.23;23.57;;;;;;;;;;5018763;28;20195;-65
2023/04/08 06:20:18;;;;;;;38.73;23.83;;;;;;;;;;5031031;28;20191;-66
2023/04/08 06:22:45;;;;;;;41.80;23.37;;;;;;;;;;5027441;28;20187;-65
2023/04/08 06:25:11;;;;;;;42.87;23.80;;;;;;;;;;5028420;28;20222;-66
2023/04/08 06:27:38;;;;;;;46.90;25.50;;;;;;;;;;5028482;28;20241;-65
2023/04/08 06:30:05;;;;;;;44.00;25.47;;;;;;;;;;5028828;28;20188;-65
2023/04/08 06:32:32;;;;;;;45.77;25.23;;;;;;;;;;5030561;28;20183;-65
2023/04/08 06:34:58;;;;;;;48.33;25.00;;;;;;;;;;5028122;28;20195;-65
2023/04/08 06:37:25;;;;;;;38.67;24.00;;;;;;;;;;5030263;28;20203;-66
2023/04/08 06:39:54;;;;;;;42.60;24.10;;;;;;;;;;4991749;28;20223;-65
2023/04/08 06:42:21;;;;;;;43.03;24.33;;;;;;;;;;5028185;28;20219;-65
2023/04/08 06:45:11;;;;;;;44.53;24.60;;;;;;;;;;4995584;28;20262;-64
2023/04/08 06:47:41;;;;;;;40.50;23.90;;;;;;;;;;5011183;28;20309;-65
2023/04/08 06:50:08;;;;;;;37.57;22.07;;;;;;;;;;5025452;28;20667;-56
2023/04/08 06:52:35;;;;;;;36.70;22.03;;;;;;;;;;5025163;28;20219;-54
2023/04/08 06:55:02;;;;;;;44.07;23.43;;;;;;;;;;5026539;28;20197;-53
2023/04/08 06:57:28;;;;;;;43.13;22.63;;;;;;;;;;5026898;28;20325;-58
2023/04/08 06:59:56;;;;;;;39.47;22.20;;;;;;;;;;5027670;28;20238;-54
2023/04/08 07:02:23;;;;;;;40.93;22.43;;;;;;;;;;5027007;28;20226;-65
2023/04/08 07:04:49;;;;;;;44.43;24.63;;;;;;;;;;5026432;28;20183;-65
2023/04/08 07:07:16;;;;;;;38.73;23.30;;;;;;;;;;5016670;28;20200;-64
2023/04/08 07:09:44;;;;;;;36.00;21.80;;;;;;;;;;5023359;28;20196;-65
2023/04/08 07:12:11;;;;;;;37.23;21.57;;;;;;;;;;5025628;28;20318;-67
2023/04/08 07:14:38;;;;;;;35.83;21.33;;;;;;;;;;5026835;28;20188;-65
2023/04/08 07:17:05;;;;;;;30.43;19.70;;;;;;;;;;5026641;28;20326;-55
2023/04/08 07:19:32;;;;;;;32.53;20.70;;;;;;;;;;5030741;28;20214;-54
2023/04/08 07:22:00;;;;;;;30.90;19.73;;;;;;;;;;5028164;28;20211;-65
2023/04/08 07:24:28;;;;;;;34.33;21.03;;;;;;;;;;4999176;28;20187;-64
2023/04/08 07:26:55;;;;;;;35.67;20.40;;;;;;;;;;5028424;28;20187;-64
2023/04/08 07:29:22;;;;;;;35.10;21.30;;;;;;;;;;5025137;28;20725;-65
2023/04/08 07:31:51;;;;;;;34.47;21.20;;;;;;;;;;5033156;28;20297;-64
2023/04/08 07:34:18;;;;;;;36.17;21.87;;;;;;;;;;5033638;28;20559;-64
2023/04/08 07:36:45;;;;;;;38.53;22.60;;;;;;;;;;5027416;28;20249;-65
2023/04/08 07:39:12;;;;;;;32.53;21.40;;;;;;;;;;5009287;28;20768;-54
2023/04/08 07:41:39;;;;;;;43.20;26.43;;;;;;;;;;5027335;28;20215;-63
2023/04/08 07:44:06;;;;;;;50.97;30.30;;;;;;;;;;5032056;28;20195;-67
2023/04/08 07:46:37;;;;;;;31.13;20.40;;;;;;;;;;5024158;28;20203;-64
2023/04/08 07:49:04;;;;;;;488.83;246.13;;;;;;;;;;5022998;28;20227;-64
2023/04/08 07:51:34;;;;;;;338.23;163.47;;;;;;;;;;5025914;28;20211;-64
2023/04/08 07:54:09;;;;;;;190.37;109.47;;;;;;;;;;5023422;28;20195;-65
2023/04/08 07:57:01;;;;;;;108.40;69.70;;;;;;;;;;4994277;28;20167;-64
2023/04/08 07:59:27;;;;;;;41.30;28.10;;;;;;;;;;5015141;28;20192;-64
2023/04/08 08:01:56;;;;;;;33.33;22.17;;;;;;;;;;5025755;28;20297;-65
2023/04/08 08:04:26;;;;;;;37.03;21.90;;;;;;;;;;5025696;28;20198;-64
2023/04/08 08:06:54;;;;;;;29.60;17.87;;;;;;;;;;5025470;28;20195;-63
2023/04/08 08:09:22;;;;;;;27.27;17.93;;;;;;;;;;5032008;28;20199;-64
2023/04/08 08:11:49;;;;;;;25.47;15.80;;;;;;;;;;5024184;28;20199;-55
2023/04/08 08:14:16;;;;;;;25.23;16.70;;;;;;;;;;5025691;28;20184;-65
2023/04/08 08:16:43;;;;;;;25.63;16.73;;;;;;;;;;5026101;28;20198;-65
2023/04/08 08:19:11;;;;;;;45.83;34.47;;;;;;;;;;5028038;28;20194;-65
2023/04/08 08:21:38;;;;;;;27.83;17.60;;;;;;;;;;5031269;28;20207;-64
2023/04/08 08:24:05;;;;;;;28.73;17.87;;;;;;;;;;5025885;28;20196;-65
2023/04/08 08:26:35;;;;;;;31.53;18.63;;;;;;;;;;5010652;28;20191;-65
2023/04/08 08:29:03;;;;;;;30.17;19.07;;;;;;;;;;5033342;28;20329;-65
2023/04/08 08:31:34;;;;;;;30.43;18.40;;;;;;;;;;5033721;28;20618;-65
2023/04/08 08:34:01;;;;;;;28.13;17.47;;;;;;;;;;5031589;28;20733;-65
2023/04/08 08:36:30;;;;;;;27.27;16.23;;;;;;;;;;5031214;28;20621;-64
2023/04/08 08:38:58;;;;;;;29.57;18.20;;;;;;;;;;5031461;28;20235;-64
2023/04/08 08:41:25;;;;;;;27.07;17.27;;;;;;;;;;5031453;28;20674;-63
2023/04/08 08:43:52;;;;;;;28.60;17.50;;;;;;;;;;5032044;28;20194;-64
2023/04/08 08:46:20;;;;;;;30.40;18.33;;;;;;;;;;5014420;28;20183;-63
2023/04/08 08:48:51;;;;;;;32.90;19.63;;;;;;;;;;5029118;28;20206;-63
2023/04/08 08:51:17;;;;;;;26.73;17.73;;;;;;;;;;5032371;28;20190;-64
2023/04/08 08:53:44;;;;;;;26.33;17.60;;;;;;;;;;5014015;28;20231;-64
2023/04/08 08:56:11;;;;;;;29.17;17.83;;;;;;;;;;5033016;28;20187;-65
2023/04/08 08:58:44;;;;;;;110.27;65.47;;;;;;;;;;5032939;28;20191;-64
2023/04/08 09:01:29;;;;;;;40.40;23.67;;;;;;;;;;5037863;28;20222;-64
2023/04/08 09:04:07;;;;;;;30.87;17.70;;;;;;;;;;5031363;28;20191;-64
2023/04/08 09:06:36;;;;;;;24.23;16.53;;;;;;;;;;5034166;28;20241;-63
2023/04/08 09:09:09;;;;;;;23.00;14.90;;;;;;;;;;5033940;28;20238;-64
2023/04/08 09:11:40;;;;;;;25.07;16.33;;;;;;;;;;5032123;28;20686;-64
2023/04/08 09:14:22;;;;;;;28.47;18.17;;;;;;;;;;5032584;28;20190;-63
2023/04/08 09:16:49;;;;;;;25.40;16.13;;;;;;;;;;5029844;28;20191;-62
2023/04/08 09:19:17;;;;;;;25.53;15.93;;;;;;;;;;5040691;28;20275;-65
2023/04/08 09:21:43;;;;;;;22.90;15.37;;;;;;;;;;5032237;28;20238;-63
2023/04/08 09:24:25;;;;;;;24.33;15.50;;;;;;;;;;5031878;28;20190;-61
2023/04/08 09:26:52;;;;;;;22.63;15.93;;;;;;;;;;5020255;28;20266;-64
2023/04/08 09:29:19;;;;;;;22.77;16.13;;;;;;;;;;5031349;28;20762;-63
2023/04/08 09:31:53;;;;;;;24.70;16.30;;;;;;;;;;4999333;28;20199;-65
2023/04/08 09:34:22;;;;;;;22.27;16.07;;;;;;;;;;5032148;28;20912;-65
2023/04/08 09:36:49;;;;;;;22.93;15.30;;;;;;;;;;5032738;28;20198;-65
2023/04/08 09:39:15;;;;;;;24.37;15.50;;;;;;;;;;5031682;28;20330;-65
2023/04/08 09:41:42;;;;;;;22.47;15.67;;;;;;;;;;5034052;28;20242;-65
2023/04/08 09:44:10;;;;;;;24.10;15.97;;;;;;;;;;5025263;28;20652;-64
2023/04/08 09:46:49;;;;;;;24.70;15.20;;;;;;;;;;5027378;28;20557;-64
2023/04/08 09:49:25;;;;;;;23.90;14.63;;;;;;;;;;5028012;28;20187;-64
2023/04/08 09:51:52;;;;;;;22.40;14.63;;;;;;;;;;5028817;28;20191;-64
2023/04/08 09:54:20;;;;;;;19.60;14.00;;;;;;;;;;5027016;28;20215;-64
2023/04/08 09:56:53;;;;;;;21.00;13.80;;;;;;;;;;5029259;28;20191;-64
2023/04/08 09:59:21;;;;;;;18.37;13.03;;;;;;;;;;5029266;28;20191;-64
2023/04/08 10:01:51;;;;;;;17.53;13.00;;;;;;;;;;5008615;28;20587;-65
2023/04/08 10:04:19;;;;;;;17.50;12.47;;;;;;;;;;5022115;28;20206;-64
2023/04/08 10:07:05;;;;;;;15.07;11.20;;;;;;;;;;5032197;28;20202;-65
2023/04/08 10:09:32;;;;;;;13.03;9.80;;;;;;;;;;5030588;28;20200;-64
2023/04/08 10:12:00;;;;;;;14.50;9.20;;;;;;;;;;5040981;28;20183;-65
2023/04/08 10:14:27;;;;;;;8.73;5.67;;;;;;;;;;5015473;28;20551;-64
2023/04/08 10:17:12;;;;;;;12.00;9.13;;;;;;;;;;5029462;28;20256;-65
2023/04/08 10:19:41;;;;;;;12.13;8.77;;;;;;;;;;5029681;28;20195;-65
2023/04/08 10:22:44;;;;;;;11.40;8.00;;;;;;;;;;5030509;28;20204;-64
2023/04/08 10:25:14;;;;;;;11.93;8.60;;;;;;;;;;4988660;28;20197;-64
2023/04/08 10:27:41;;;;;;;13.23;9.67;;;;;;;;;;5025048;28;20214;-66
2023/04/08 10:30:31;;;;;;;13.40;9.70;;;;;;;;;;5031367;28;20237;-66
2023/04/08 10:33:02;;;;;;;11.97;8.97;;;;;;;;;;5019920;28;20262;-65
2023/04/08 10:35:29;;;;;;;11.27;8.17;;;;;;;;;;5027732;28;20226;-65
2023/04/08 10:37:59;;;;;;;12.67;8.90;;;;;;;;;;5031580;28;20222;-63
2023/04/08 10:40:26;;;;;;;13.13;9.20;;;;;;;;;;5032109;28;20235;-63
2023/04/08 10:42:56;;;;;;;11.57;8.83;;;;;;;;;;5029916;28;20307;-64
2023/04/08 10:45:23;;;;;;;11.73;8.77;;;;;;;;;;5013504;28;20192;-63
2023/04/08 10:47:53;;;;;;;10.90;9.27;;;;;;;;;;5026171;28;20191;-63
2023/04/08 10:50:23;;;;;;;17.53;11.97;;;;;;;;;;4999946;28;20295;-63
2023/04/08 10:52:50;;;;;;;13.63;9.70;;;;;;;;;;5030549;28;20620;-63
2023/04/08 10:55:24;;;;;;;13.67;9.97;;;;;;;;;;5003156;28;20316;-63
2023/04/08 10:57:52;;;;;;;11.73;9.10;;;;;;;;;;5031572;28;20219;-63
2023/04/08 11:00:37;;;;;;;12.43;9.10;;;;;;;;;;5030372;28;20211;-63
2023/04/08 11:03:04;;;;;;;12.07;9.20;;;;;;;;;;5030901;28;20247;-66
2023/04/08 11:05:32;;;;;;;12.83;9.50;;;;;;;;;;5030735;28;20293;-65
2023/04/08 11:08:00;;;;;;;14.27;9.27;;;;;;;;;;5029169;28;20191;-65
2023/04/08 11:10:27;;;;;;;11.47;8.60;;;;;;;;;;5031102;28;20210;-65
2023/04/08 11:12:55;;;;;;;13.30;9.37;;;;;;;;;;5024127;28;20199;-66
2023/04/08 11:15:25;;;;;;;11.73;9.03;;;;;;;;;;5030672;28;20190;-66
2023/04/08 11:17:53;;;;;;;12.40;8.90;;;;;;;;;;5018803;28;20254;-67
2023/04/08 11:20:20;;;;;;;11.47;8.83;;;;;;;;;;5010734;28;20693;-66
2023/04/08 11:22:47;;;;;;;12.37;9.23;;;;;;;;;;5029941;28;20287;-65
2023/04/08 11:25:14;;;;;;;11.93;8.67;;;;;;;;;;5046293;28;20741;-65
2023/04/08 11:27:41;;;;;;;11.57;8.57;;;;;;;;;;5039395;28;20210;-64
2023/04/08 11:30:08;;;;;;;12.17;9.20;;;;;;;;;;5041975;28;20191;-65
2023/04/08 11:32:35;;;;;;;13.07;9.53;;;;;;;;;;5014713;28;20218;-65
2023/04/08 11:35:05;;;;;;;11.60;8.70;;;;;;;;;;5016701;28;20516;-65
2023/04/08 11:37:41;;;;;;;12.50;8.77;;;;;;;;;;5017349;28;20223;-64
2023/04/08 11:40:12;;;;;;;11.90;8.77;;;;;;;;;;5022080;28;20690;-64
2023/04/08 11:42:39;;;;;;;10.97;8.53;;;;;;;;;;5018396;28;20207;-63
2023/04/08 11:45:09;;;;;;;11.77;9.47;;;;;;;;;;5030745;28;20183;-64
2023/04/08 11:47:39;;;;;;;10.80;8.83;;;;;;;;;;5030576;28;20241;-63
2023/04/08 11:50:06;;;;;;;11.30;9.20;;;;;;;;;;5030530;28;20708;-62
2023/04/08 11:52:43;;;;;;;10.80;8.70;;;;;;;;;;5030025;28;20562;-63
2023/04/08 11:55:25;;;;;;;12.50;9.03;;;;;;;;;;5030440;28;20195;-62
2023/04/08 11:57:53;;;;;;;11.43;8.67;;;;;;;;;;5030008;28;20245;-63
2023/04/08 12:00:20;;;;;;;11.50;8.80;;;;;;;;;;5004691;28;20231;-63
2023/04/08 12:02:47;;;;;;;11.70;8.87;;;;;;;;;;5030169;28;20286;-62
2023/04/08 12:05:14;;;;;;;10.13;7.97;;;;;;;;;;5030711;28;20192;-62
2023/04/08 12:07:42;;;;;;;12.47;8.67;;;;;;;;;;5005730;28;20224;-64
2023/04/08 12:10:09;;;;;;;11.70;8.83;;;;;;;;;;5025057;28;20198;-62
2023/04/08 12:12:36;;;;;;;10.10;8.53;;;;;;;;;;5030091;28;20195;-62
2023/04/08 12:15:03;;;;;;;11.53;9.07;;;;;;;;;;5029847;28;20206;-65
2023/04/08 12:17:30;;;;;;;12.13;8.63;;;;;;;;;;5009539;28;20217;-61
2023/04/08 12:19:57;;;;;;;11.13;8.07;;;;;;;;;;5025767;28;20184;-63
2023/04/08 12:22:24;;;;;;;12.23;8.67;;;;;;;;;;5027170;28;20218;-62
2023/04/08 12:24:51;;;;;;;11.70;8.67;;;;;;;;;;5026957;28;20215;-62
2023/04/08 12:27:18;;;;;;;11.27;8.67;;;;;;;;;;5026395;28;20811;-61
2023/04/08 12:29:45;;;;;;;12.63;9.17;;;;;;;;;;5027545;28;20253;-62
2023/04/08 12:32:12;;;;;;;11.20;8.70;;;;;;;;;;5027292;28;20183;-62
2023/04/08 12:34:39;;;;;;;13.03;9.20;;;;;;;;;;5027067;28;20187;-60
2023/04/08 12:37:06;;;;;;;12.30;8.57;;;;;;;;;;5027183;28;20230;-64
2023/04/08 12:39:32;;;;;;;10.80;8.37;;;;;;;;;;5023108;28;20292;-70
2023/04/08 12:42:00;;;;;;;10.30;8.30;;;;;;;;;;5025129;28;20287;-68
2023/04/08 12:44:27;;;;;;;13.77;10.10;;;;;;;;;;5025224;28;20204;-68
2023/04/08 12:46:54;;;;;;;13.43;10.60;;;;;;;;;;5020745;28;20191;-66
2023/04/08 12:49:21;;;;;;;17.27;12.90;;;;;;;;;;5026010;28;20194;-66
2023/04/08 12:51:49;;;;;;;18.13;12.37;;;;;;;;;;5022066;28;20196;-67
2023/04/08 12:54:15;;;;;;;14.27;11.10;;;;;;;;;;5007813;28;20244;-67
2023/04/08 12:56:45;;;;;;;16.53;11.80;;;;;;;;;;5024987;28;20219;-68
2023/04/08 12:59:14;;;;;;;16.27;12.00;;;;;;;;;;5024983;28;20539;-67
2023/04/08 13:01:41;;;;;;;17.17;11.37;;;;;;;;;;5012755;28;20227;-67
2023/04/08 13:04:07;;;;;;;17.23;12.67;;;;;;;;;;5024960;28;20254;-59
2023/04/08 13:06:36;;;;;;;17.53;13.17;;;;;;;;;;5010197;28;20242;-60
2023/04/08 13:09:03;;;;;;;16.57;12.80;;;;;;;;;;5011224;28;20231;-60
2023/04/08 13:11:32;;;;;;;17.47;12.03;;;;;;;;;;5029002;28;20195;-60
2023/04/08 13:14:00;;;;;;;17.60;12.10;;;;;;;;;;5028658;28;20261;-66
2023/04/08 13:16:26;;;;;;;17.23;12.70;;;;;;;;;;5028413;28;20218;-66
2023/04/08 13:18:53;;;;;;;19.47;12.73;;;;;;;;;;5025545;28;20262;-64
2023/04/08 13:21:23;;;;;;;20.63;13.97;;;;;;;;;;5012052;28;20195;-63
2023/04/08 13:23:50;;;;;;;17.53;12.77;;;;;;;;;;5029788;28;20207;-64
2023/04/08 13:26:16;;;;;;;18.37;13.10;;;;;;;;;;5030489;28;20270;-65
2023/04/08 13:28:43;;;;;;;18.53;13.47;;;;;;;;;;5030170;28;20720;-62
2023/04/08 13:31:15;;;;;;;19.97;13.77;;;;;;;;;;5030136;28;20230;-62
2023/04/08 13:33:42;;;;;;;17.67;13.10;;;;;;;;;;5029859;28;20188;-61
2023/04/08 13:36:08;;;;;;;21.03;14.60;;;;;;;;;;5029028;28;20689;-60
2023/04/08 13:38:35;;;;;;;18.43;13.87;;;;;;;;;;5030222;28;20611;-64
2023/04/08 13:41:02;;;;;;;18.27;13.53;;;;;;;;;;5029382;28;20186;-63
2023/04/08 13:43:29;;;;;;;19.47;14.57;;;;;;;;;;5029848;28;20215;-61
2023/04/08 13:45:57;;;;;;;19.03;14.77;;;;;;;;;;5029705;28;20275;-63
2023/04/08 13:48:24;;;;;;;22.40;15.67;;;;;;;;;;5029662;28;20215;-62
2023/04/08 13:50:53;;;;;;;25.67;17.00;;;;;;;;;;5029341;28;20215;-62
2023/04/08 13:53:20;;;;;;;20.90;14.70;;;;;;;;;;5022463;28;20201;-64
2023/04/08 13:55:47;;;;;;;21.90;14.60;;;;;;;;;;5029464;28;20279;-62
2023/04/08 13:58:16;;;;;;;19.90;13.40;;;;;;;;;;5018374;28;20231;-63
2023/04/08 14:00:50;;;;;;;23.57;15.63;;;;;;;;;;5036697;28;20541;-64
2023/04/08 14:03:17;;;;;;;21.83;14.43;;;;;;;;;;5035935;28;20245;-63
2023/04/08 14:05:44;;;;;;;22.13;14.57;;;;;;;;;;5041084;28;20272;-63
2023/04/08 14:08:12;;;;;;;25.33;15.00;;;;;;;;;;5033136;28;20190;-63
2023/04/08 14:10:42;;;;;;;21.93;13.70;;;;;;;;;;5038296;28;20187;-63
2023/04/08 14:13:09;;;;;;;19.67;12.83;;;;;;;;;;5037025;28;20190;-63
2023/04/08 14:15:39;;;;;;;18.27;13.43;;;;;;;;;;5036155;28;20277;-64
2023/04/08 14:18:09;;;;;;;22.30;15.07;;;;;;;;;;5037345;28;20202;-63
2023/04/08 14:20:36;;;;;;;20.17;14.47;;;;;;;;;;5031105;28;20265;-64
2023/04/08 14:23:03;;;;;;;23.50;14.17;;;;;;;;;;5040937;28;20286;-64
2023/04/08 14:25:32;;;;;;;22.63;14.93;;;;;;;;;;5043122;28;20202;-65
2023/04/08 14:27:58;;;;;;;28.77;15.80;;;;;;;;;;5046432;28;20211;-62
2023/04/08 14:30:25;;;;;;;23.47;15.50;;;;;;;;;;5028655;28;20201;-55
2023/04/08 14:32:54;;;;;;;24.43;15.30;;;;;;;;;;5027975;28;20265;-54
2023/04/08 14:35:20;;;;;;;24.37;14.60;;;;;;;;;;5032098;28;20670;-57
2023/04/08 14:37:47;;;;;;;23.37;15.13;;;;;;;;;;5037463;28;20198;-63
2023/04/08 14:40:14;;;;;;;22.37;13.93;;;;;;;;;;5034123;28;20591;-62
2023/04/08 14:42:40;;;;;;;21.73;13.60;;;;;;;;;;5025969;28;20686;-63
2023/04/08 14:45:07;;;;;;;21.80;14.73;;;;;;;;;;5031764;28;20855;-62
2023/04/08 14:47:34;;;;;;;23.00;14.47;;;;;;;;;;5032254;28;20192;-62
2023/04/08 14:50:01;;;;;;;26.13;17.17;;;;;;;;;;5026716;28;20178;-63
2023/04/08 14:52:28;;;;;;;41.07;26.00;;;;;;;;;;5026117;28;20279;-63
2023/04/08 14:54:55;;;;;;;29.80;21.90;;;;;;;;;;5009483;28;20195;-63
2023/04/08 14:57:22;;;;;;;27.23;23.07;;;;;;;;;;5026308;28;20187;-65